Time;durP1;ratioP1;P1;durP2;ratioP2;P2;SDS_P1;SDS_P2;PMS_P1;PMS_P2;Temp;Humidity;BMP_temperature;BMP_pressure;BME280_temperature;BME280_humidity;BME280_pressure;Samples;Min_cycle;Max_cycle;Signal;HPM_P1;HPM_P2
2023/04/27 00:01:30;;;;;;;11.90;6.78;;;;;;;;;;5050272;28;20137;-72
2023/04/27 00:03:56;;;;;;;13.55;7.28;;;;;;;;;;5050835;28;20037;-72
2023/04/27 00:06:22;;;;;;;11.70;7.15;;;;;;;;;;5053306;28;20378;-72
2023/04/27 00:08:48;;;;;;;10.65;7.05;;;;;;;;;;5053212;28;20132;-72
2023/04/27 00:11:14;;;;;;;11.38;6.97;;;;;;;;;;5055744;28;20092;-72
2023/04/27 00:13:40;;;;;;;13.00;7.70;;;;;;;;;;5055432;28;20366;-72
2023/04/27 00:16:06;;;;;;;11.30;6.45;;;;;;;;;;5055263;28;20040;-72
2023/04/27 00:18:32;;;;;;;10.45;6.63;;;;;;;;;;5056258;28;20049;-72
2023/04/27 00:20:58;;;;;;;9.93;6.43;;;;;;;;;;5055542;28;20123;-72
2023/04/27 00:23:25;;;;;;;14.13;6.30;;;;;;;;;;5048248;28;20053;-72
2023/04/27 00:25:51;;;;;;;14.60;6.50;;;;;;;;;;5053830;28;20053;-72
2023/04/27 00:28:17;;;;;;;8.90;5.97;;;;;;;;;;5055769;28;20107;-72
2023/04/27 00:30:43;;;;;;;9.27;6.13;;;;;;;;;;5055839;28;20059;-72
2023/04/27 00:33:10;;;;;;;9.82;5.30;;;;;;;;;;5044026;28;20545;-72
2023/04/27 00:35:36;;;;;;;9.50;5.78;;;;;;;;;;5035850;28;20041;-72
2023/04/27 00:38:02;;;;;;;8.15;5.60;;;;;;;;;;5035846;28;20060;-72
2023/04/27 00:40:28;;;;;;;8.18;5.90;;;;;;;;;;5035329;28;20124;-72
2023/04/27 00:42:54;;;;;;;12.43;6.75;;;;;;;;;;5035662;28;20052;-72
2023/04/27 00:45:20;;;;;;;9.98;6.22;;;;;;;;;;5012944;28;20040;-72
2023/04/27 00:47:46;;;;;;;9.02;6.30;;;;;;;;;;5037877;28;20052;-72
2023/04/27 00:50:14;;;;;;;8.73;5.80;;;;;;;;;;5037349;28;20045;-72
2023/04/27 00:52:40;;;;;;;12.15;6.22;;;;;;;;;;5053018;28;20398;-72
2023/04/27 00:55:07;;;;;;;11.95;6.75;;;;;;;;;;5020248;28;20045;-71
2023/04/27 00:57:33;;;;;;;11.40;6.50;;;;;;;;;;5017805;28;20097;-71
2023/04/27 01:00:00;;;;;;;9.50;6.22;;;;;;;;;;5033466;28;20037;-71
2023/04/27 01:02:26;;;;;;;8.50;6.38;;;;;;;;;;5016568;28;20042;-71
2023/04/27 01:04:52;;;;;;;11.75;6.20;;;;;;;;;;5016948;28;20049;-71
2023/04/27 01:07:18;;;;;;;9.90;6.50;;;;;;;;;;5035403;28;20060;-71
2023/04/27 01:09:45;;;;;;;10.88;6.68;;;;;;;;;;5018222;28;20041;-72
2023/04/27 01:12:11;;;;;;;12.45;6.90;;;;;;;;;;5036698;28;20107;-71
2023/04/27 01:14:37;;;;;;;14.98;7.13;;;;;;;;;;5036295;28;20049;-71
2023/04/27 01:17:03;;;;;;;13.02;6.88;;;;;;;;;;5035151;28;20521;-71
2023/04/27 01:19:29;;;;;;;10.50;6.95;;;;;;;;;;5003954;28;20060;-71
2023/04/27 01:21:55;;;;;;;12.80;6.97;;;;;;;;;;5053739;28;20049;-71
2023/04/27 01:24:21;;;;;;;9.68;6.80;;;;;;;;;;5044113;28;20046;-72
2023/04/27 01:26:48;;;;;;;12.50;6.65;;;;;;;;;;5034505;28;20154;-72
2023/04/27 01:29:14;;;;;;;12.73;6.80;;;;;;;;;;5000523;28;20088;-72
2023/04/27 01:31:40;;;;;;;10.57;6.60;;;;;;;;;;4999828;28;20049;-71
2023/04/27 01:34:07;;;;;;;9.15;6.78;;;;;;;;;;5043111;28;20115;-72
2023/04/27 01:36:33;;;;;;;10.07;7.10;;;;;;;;;;5053223;28;20045;-72
2023/04/27 01:38:59;;;;;;;12.30;6.65;;;;;;;;;;5053337;28;20085;-72
2023/04/27 01:41:25;;;;;;;12.82;7.10;;;;;;;;;;5052758;28;20138;-71
2023/04/27 01:43:51;;;;;;;10.05;6.57;;;;;;;;;;5054476;28;20045;-72
2023/04/27 01:46:17;;;;;;;13.57;7.97;;;;;;;;;;5054370;28;20071;-71
2023/04/27 01:48:43;;;;;;;10.75;7.00;;;;;;;;;;5053098;28;20049;-72
2023/04/27 01:51:09;;;;;;;9.50;7.13;;;;;;;;;;5052955;28;20055;-72
2023/04/27 01:53:35;;;;;;;10.65;7.22;;;;;;;;;;5049869;28;20040;-72
2023/04/27 01:56:01;;;;;;;12.43;6.55;;;;;;;;;;5031851;28;20045;-72
2023/04/27 01:58:27;;;;;;;9.77;7.05;;;;;;;;;;5048045;28;20103;-72
2023/04/27 02:00:53;;;;;;;9.63;7.05;;;;;;;;;;5054059;28;20128;-72
2023/04/27 02:03:19;;;;;;;14.63;7.13;;;;;;;;;;5054226;28;20052;-71
2023/04/27 02:05:46;;;;;;;10.75;6.93;;;;;;;;;;5053865;28;20049;-72
2023/04/27 02:08:12;;;;;;;11.85;6.75;;;;;;;;;;5052341;28;20053;-72
2023/04/27 02:10:38;;;;;;;9.88;6.45;;;;;;;;;;5052018;28;20051;-71
2023/04/27 02:13:04;;;;;;;11.55;6.45;;;;;;;;;;5051315;28;20524;-72
2023/04/27 02:15:31;;;;;;;10.80;6.47;;;;;;;;;;5053781;28;20063;-72
2023/04/27 02:17:57;;;;;;;10.85;6.63;;;;;;;;;;5052508;28;20037;-72
2023/04/27 02:20:23;;;;;;;10.98;6.72;;;;;;;;;;5035451;28;20084;-72
2023/04/27 02:22:49;;;;;;;12.27;7.38;;;;;;;;;;5051673;28;20044;-72
2023/04/27 02:25:15;;;;;;;10.02;6.63;;;;;;;;;;5051877;28;20044;-72
2023/04/27 02:27:42;;;;;;;13.55;6.63;;;;;;;;;;5052083;28;20064;-73
2023/04/27 02:30:08;;;;;;;10.77;6.75;;;;;;;;;;5051658;28;20456;-71
2023/04/27 02:32:35;;;;;;;15.02;6.63;;;;;;;;;;5052115;28;20127;-72
2023/04/27 02:35:01;;;;;;;12.55;7.45;;;;;;;;;;5032660;28;20047;-72
2023/04/27 02:37:27;;;;;;;13.20;7.40;;;;;;;;;;5053183;28;20037;-72
2023/04/27 02:39:53;;;;;;;11.95;7.20;;;;;;;;;;5018799;28;20056;-72
2023/04/27 02:42:19;;;;;;;11.95;7.22;;;;;;;;;;5035283;28;20044;-71
2023/04/27 02:44:45;;;;;;;12.05;7.32;;;;;;;;;;5033275;28;20041;-72
2023/04/27 02:47:12;;;;;;;13.30;7.30;;;;;;;;;;5052119;28;20488;-72
2023/04/27 02:49:38;;;;;;;11.23;7.03;;;;;;;;;;5052309;28;20051;-72
2023/04/27 02:52:05;;;;;;;9.93;7.13;;;;;;;;;;5051001;28;20485;-72
2023/04/27 02:54:31;;;;;;;11.90;7.80;;;;;;;;;;5040958;28;20053;-72
2023/04/27 02:56:57;;;;;;;14.88;7.85;;;;;;;;;;5034968;28;20037;-72
2023/04/27 02:59:23;;;;;;;10.75;6.75;;;;;;;;;;5033404;28;20055;-72
2023/04/27 03:01:49;;;;;;;15.05;7.40;;;;;;;;;;5052551;28;20055;-72
2023/04/27 03:04:16;;;;;;;11.20;6.95;;;;;;;;;;5052769;28;20041;-72
2023/04/27 03:06:42;;;;;;;10.90;7.50;;;;;;;;;;5052445;28;20077;-72
2023/04/27 03:09:11;;;;;;;12.48;7.88;;;;;;;;;;5034752;28;20490;-72
2023/04/27 03:11:38;;;;;;;13.07;7.35;;;;;;;;;;5034536;28;20084;-72
2023/04/27 03:14:04;;;;;;;11.55;7.68;;;;;;;;;;5052804;28;20144;-72
2023/04/27 03:16:33;;;;;;;10.25;8.27;;;;;;;;;;5052129;28;20041;-72
2023/04/27 03:19:00;;;;;;;12.93;8.13;;;;;;;;;;5051102;28;20115;-72
2023/04/27 03:21:27;;;;;;;11.75;7.95;;;;;;;;;;5050792;28;20107;-72
2023/04/27 03:23:53;;;;;;;14.55;8.02;;;;;;;;;;5014753;28;20060;-72
2023/04/27 03:26:19;;;;;;;12.32;7.63;;;;;;;;;;5039124;28;20049;-71
2023/04/27 03:28:45;;;;;;;12.07;8.07;;;;;;;;;;5045216;28;20048;-71
2023/04/27 03:31:12;;;;;;;13.27;7.78;;;;;;;;;;5052472;28;20041;-71
2023/04/27 03:33:39;;;;;;;13.70;8.23;;;;;;;;;;5046409;28;20057;-71
2023/04/27 03:36:05;;;;;;;13.40;7.80;;;;;;;;;;5052366;28;20041;-72
2023/04/27 03:38:31;;;;;;;14.07;8.13;;;;;;;;;;5046178;28;20124;-72
2023/04/27 03:40:57;;;;;;;11.52;7.47;;;;;;;;;;5051109;28;20044;-72
2023/04/27 03:43:24;;;;;;;14.38;8.00;;;;;;;;;;5056887;28;20041;-71
2023/04/27 03:45:50;;;;;;;12.07;9.27;;;;;;;;;;5056215;28;20037;-72
2023/04/27 03:48:16;;;;;;;14.93;8.57;;;;;;;;;;5048337;28;20036;-72
2023/04/27 03:50:42;;;;;;;11.73;8.40;;;;;;;;;;5055478;28;20072;-72
2023/04/27 03:53:09;;;;;;;11.40;7.93;;;;;;;;;;5056170;28;20102;-72
2023/04/27 03:55:38;;;;;;;12.93;8.27;;;;;;;;;;5050292;28;20048;-72
2023/04/27 03:58:05;;;;;;;14.25;8.27;;;;;;;;;;5055712;28;20052;-72
2023/04/27 04:00:31;;;;;;;13.43;8.63;;;;;;;;;;5024313;28;20129;-71
2023/04/27 04:02:57;;;;;;;12.15;8.15;;;;;;;;;;5057463;28;20056;-72
2023/04/27 04:05:23;;;;;;;12.02;8.30;;;;;;;;;;5037826;28;20055;-72
2023/04/27 04:07:49;;;;;;;14.40;8.80;;;;;;;;;;5019577;28;20044;-71
2023/04/27 04:10:15;;;;;;;11.02;8.65;;;;;;;;;;5037954;28;20053;-72
2023/04/27 04:12:41;;;;;;;16.15;8.40;;;;;;;;;;5053666;28;20044;-72
2023/04/27 04:15:08;;;;;;;12.43;8.48;;;;;;;;;;5052690;28;20151;-72
2023/04/27 04:17:34;;;;;;;12.43;8.63;;;;;;;;;;5054399;28;20048;-72
2023/04/27 04:20:00;;;;;;;15.30;8.77;;;;;;;;;;5055662;28;20068;-71
2023/04/27 04:22:26;;;;;;;10.60;8.07;;;;;;;;;;5055770;28;20052;-72
2023/04/27 04:24:52;;;;;;;13.82;8.77;;;;;;;;;;5055228;28;20041;-71
2023/04/27 04:27:19;;;;;;;16.02;9.00;;;;;;;;;;5047328;28;20161;-71
2023/04/27 04:29:45;;;;;;;12.75;8.43;;;;;;;;;;5054238;28;20053;-72
2023/04/27 04:32:11;;;;;;;11.30;8.38;;;;;;;;;;5045934;28;20088;-72
2023/04/27 04:34:38;;;;;;;13.52;8.70;;;;;;;;;;5055447;28;20052;-72
2023/04/27 04:37:04;;;;;;;12.07;8.25;;;;;;;;;;5055433;28;20041;-72
2023/04/27 04:39:33;;;;;;;12.77;8.18;;;;;;;;;;5055186;28;20045;-71
2023/04/27 04:41:59;;;;;;;12.43;8.45;;;;;;;;;;5055526;28;20041;-72
2023/04/27 04:44:25;;;;;;;13.55;8.30;;;;;;;;;;5048286;28;20040;-72
2023/04/27 04:46:51;;;;;;;13.15;8.25;;;;;;;;;;5053934;28;20033;-72
2023/04/27 04:49:17;;;;;;;11.70;7.97;;;;;;;;;;5054857;28;20041;-71
2023/04/27 04:51:44;;;;;;;11.98;8.40;;;;;;;;;;5050444;28;20041;-71
2023/04/27 04:54:10;;;;;;;13.82;8.65;;;;;;;;;;5053184;28;20052;-71
2023/04/27 04:56:36;;;;;;;14.07;7.95;;;;;;;;;;5049472;28;20056;-72
2023/04/27 04:59:02;;;;;;;11.07;7.75;;;;;;;;;;5054728;28;20567;-72
2023/04/27 05:01:28;;;;;;;10.80;7.10;;;;;;;;;;5054547;28;20044;-71
2023/04/27 05:03:54;;;;;;;11.95;7.95;;;;;;;;;;5054980;28;20053;-72
2023/04/27 05:06:20;;;;;;;13.25;8.68;;;;;;;;;;5054628;28;20037;-72
2023/04/27 05:08:46;;;;;;;10.93;7.97;;;;;;;;;;5054753;28;20107;-71
2023/04/27 05:11:12;;;;;;;12.38;7.20;;;;;;;;;;5054654;28;20398;-71
2023/04/27 05:13:39;;;;;;;14.18;7.90;;;;;;;;;;5055242;28;20425;-72
2023/04/27 05:16:05;;;;;;;9.95;7.15;;;;;;;;;;5054655;28;20045;-71
2023/04/27 05:18:31;;;;;;;13.30;7.40;;;;;;;;;;5054733;28;20484;-71
2023/04/27 05:20:57;;;;;;;12.93;7.30;;;;;;;;;;5054266;28;20041;-72
2023/04/27 05:23:23;;;;;;;10.82;7.07;;;;;;;;;;5054315;28;20049;-72
2023/04/27 05:25:49;;;;;;;15.05;7.60;;;;;;;;;;5050101;28;20051;-71
2023/04/27 05:28:15;;;;;;;11.18;7.10;;;;;;;;;;5045727;28;20049;-72
2023/04/27 05:30:41;;;;;;;11.02;7.40;;;;;;;;;;5052574;28;20052;-71
2023/04/27 05:33:07;;;;;;;9.82;6.80;;;;;;;;;;5052622;28;20052;-76
2023/04/27 05:35:33;;;;;;;11.60;6.63;;;;;;;;;;5052084;28;20136;-75
2023/04/27 05:38:00;;;;;;;12.00;6.90;;;;;;;;;;5054641;28;20048;-76
2023/04/27 05:40:26;;;;;;;11.80;5.97;;;;;;;;;;5036398;28;20079;-75
2023/04/27 05:42:52;;;;;;;10.75;5.70;;;;;;;;;;5034323;28;20049;-75
2023/04/27 05:45:19;;;;;;;9.32;6.43;;;;;;;;;;5046147;28;20045;-75
2023/04/27 05:47:45;;;;;;;12.02;6.32;;;;;;;;;;5054483;28;20045;-75
2023/04/27 05:50:11;;;;;;;10.02;5.95;;;;;;;;;;5053451;28;20132;-75
2023/04/27 05:52:38;;;;;;;9.70;5.55;;;;;;;;;;5053379;28;20421;-75
2023/04/27 05:55:04;;;;;;;9.07;6.05;;;;;;;;;;5043582;28;20048;-74
2023/04/27 05:57:30;;;;;;;9.23;5.63;;;;;;;;;;5054031;28;20478;-76
2023/04/27 05:59:56;;;;;;;10.20;5.50;;;;;;;;;;5034246;28;20049;-76
2023/04/27 06:02:22;;;;;;;9.80;5.38;;;;;;;;;;5046357;28;20076;-76
2023/04/27 06:04:48;;;;;;;11.15;5.22;;;;;;;;;;5053643;28;20472;-76
2023/04/27 06:07:15;;;;;;;8.38;5.13;;;;;;;;;;5053411;28;20080;-76
2023/04/27 06:09:41;;;;;;;8.75;4.88;;;;;;;;;;5053305;28;20057;-75
2023/04/27 06:12:08;;;;;;;7.70;4.88;;;;;;;;;;5052246;28;20154;-76
2023/04/27 06:14:35;;;;;;;9.40;5.63;;;;;;;;;;5052461;28;20094;-76
2023/04/27 06:17:02;;;;;;;7.28;4.68;;;;;;;;;;5053607;28;20033;-76
2023/04/27 06:19:28;;;;;;;8.23;4.88;;;;;;;;;;5030339;28;20044;-76
2023/04/27 06:21:54;;;;;;;6.35;4.78;;;;;;;;;;5053318;28;20033;-76
2023/04/27 06:24:21;;;;;;;9.35;5.05;;;;;;;;;;5053121;28;20049;-77
2023/04/27 06:26:49;;;;;;;8.40;4.80;;;;;;;;;;5053088;28;20040;-77
2023/04/27 06:29:15;;;;;;;9.50;5.05;;;;;;;;;;5053208;28;20057;-77
2023/04/27 06:31:41;;;;;;;11.32;4.93;;;;;;;;;;5048386;28;20045;-76
2023/04/27 06:34:07;;;;;;;9.05;4.75;;;;;;;;;;5052234;28;20085;-77
2023/04/27 06:36:33;;;;;;;7.55;4.82;;;;;;;;;;5051842;28;20156;-76
2023/04/27 06:39:00;;;;;;;11.32;4.30;;;;;;;;;;5052498;28;20183;-76
2023/04/27 06:41:26;;;;;;;9.95;4.50;;;;;;;;;;5052385;28;20049;-76
2023/04/27 06:43:53;;;;;;;8.75;3.83;;;;;;;;;;5049721;28;20128;-77
2023/04/27 06:46:19;;;;;;;7.88;3.50;;;;;;;;;;5047177;28;20080;-76
2023/04/27 06:48:45;;;;;;;8.00;3.45;;;;;;;;;;5053259;28;20049;-76
2023/04/27 06:51:12;;;;;;;5.85;3.30;;;;;;;;;;5044278;28;20053;-77
2023/04/27 06:53:41;;;;;;;8.63;3.28;;;;;;;;;;5053056;28;20052;-77
2023/04/27 06:56:09;;;;;;;6.05;3.45;;;;;;;;;;5051818;28;20040;-77
2023/04/27 06:58:36;;;;;;;8.02;3.65;;;;;;;;;;5053496;28;20036;-75
2023/04/27 07:01:02;;;;;;;6.50;3.40;;;;;;;;;;5052760;28;20498;-77
2023/04/27 07:03:30;;;;;;;5.10;3.25;;;;;;;;;;5053260;28;20045;-77
2023/04/27 07:05:57;;;;;;;6.50;3.40;;;;;;;;;;5050270;28;20447;-77
2023/04/27 07:08:24;;;;;;;7.05;3.10;;;;;;;;;;5052338;28;20107;-77
2023/04/27 07:10:50;;;;;;;8.38;3.05;;;;;;;;;;5052245;28;20112;-77
2023/04/27 07:13:16;;;;;;;9.25;3.17;;;;;;;;;;5027984;28;20045;-77
2023/04/27 07:15:42;;;;;;;6.28;3.10;;;;;;;;;;5050898;28;20366;-77
2023/04/27 07:18:08;;;;;;;7.60;3.20;;;;;;;;;;5053003;28;20462;-77
2023/04/27 07:20:34;;;;;;;6.80;3.20;;;;;;;;;;5051592;28;20084;-77
2023/04/27 07:23:00;;;;;;;5.68;2.97;;;;;;;;;;5048949;28;20077;-77
2023/04/27 07:25:26;;;;;;;5.97;3.08;;;;;;;;;;5045693;28;20049;-77
2023/04/27 07:27:53;;;;;;;6.78;2.90;;;;;;;;;;5034482;28;20047;-77
2023/04/27 07:30:20;;;;;;;5.97;2.92;;;;;;;;;;5013602;28;20071;-77
2023/04/27 07:32:52;;;;;;;5.63;3.00;;;;;;;;;;5033559;28;20053;-77
2023/04/27 07:35:18;;;;;;;6.40;3.08;;;;;;;;;;5052202;28;20478;-75
2023/04/27 07:37:44;;;;;;;7.68;3.17;;;;;;;;;;5051838;28;20490;-77
2023/04/27 07:40:15;;;;;;;7.57;2.80;;;;;;;;;;5052222;28;20045;-77
2023/04/27 07:42:41;;;;;;;6.78;2.70;;;;;;;;;;5028213;28;20397;-77
2023/04/27 07:45:08;;;;;;;4.57;2.50;;;;;;;;;;5037470;28;20042;-77
2023/04/27 07:47:34;;;;;;;4.75;2.58;;;;;;;;;;5031497;28;20041;-76
2023/04/27 07:50:00;;;;;;;4.85;2.53;;;;;;;;;;5050952;28;20049;-77
2023/04/27 07:52:26;;;;;;;5.60;2.40;;;;;;;;;;5034432;28;20048;-77
2023/04/27 07:54:52;;;;;;;6.32;2.78;;;;;;;;;;5049833;28;20044;-78
2023/04/27 07:57:18;;;;;;;4.80;2.90;;;;;;;;;;5043130;28;20124;-77
2023/04/27 07:59:46;;;;;;;6.35;2.25;;;;;;;;;;5041539;28;20053;-77
2023/04/27 08:02:12;;;;;;;5.05;2.83;;;;;;;;;;4998394;28;20179;-77
2023/04/27 08:04:38;;;;;;;4.80;2.63;;;;;;;;;;5041254;28;20053;-77
2023/04/27 08:07:04;;;;;;;4.85;2.65;;;;;;;;;;5050650;28;20394;-77
2023/04/27 08:09:30;;;;;;;6.20;3.05;;;;;;;;;;5028606;28;20055;-77
2023/04/27 08:11:57;;;;;;;3.95;2.60;;;;;;;;;;5049924;28;20041;-75
2023/04/27 08:14:23;;;;;;;3.88;2.35;;;;;;;;;;5052218;28;20048;-76
2023/04/27 08:16:50;;;;;;;5.43;2.47;;;;;;;;;;5052290;28;20049;-77
2023/04/27 08:19:17;;;;;;;3.28;2.20;;;;;;;;;;5023953;28;20053;-76
2023/04/27 08:21:43;;;;;;;6.80;2.50;;;;;;;;;;5032014;28;20037;-76
2023/04/27 08:24:09;;;;;;;6.75;2.47;;;;;;;;;;5031805;28;20046;-76
2023/04/27 08:26:35;;;;;;;3.60;2.30;;;;;;;;;;5031814;28;20049;-77
2023/04/27 08:29:02;;;;;;;5.10;2.22;;;;;;;;;;5035891;28;20050;-77
2023/04/27 08:31:28;;;;;;;5.10;2.40;;;;;;;;;;5029217;28;20382;-77
2023/04/27 08:33:54;;;;;;;6.50;2.50;;;;;;;;;;5035475;28;20053;-77
2023/04/27 08:36:25;;;;;;;4.35;2.30;;;;;;;;;;5048272;28;20051;-77
2023/04/27 08:38:51;;;;;;;6.05;2.42;;;;;;;;;;5055221;28;20056;-77
2023/04/27 08:41:21;;;;;;;6.15;2.70;;;;;;;;;;5055236;28;20041;-77
2023/04/27 08:43:48;;;;;;;7.63;2.75;;;;;;;;;;5055571;28;20525;-77
2023/04/27 08:46:19;;;;;;;5.45;2.95;;;;;;;;;;5037566;28;20041;-77
2023/04/27 08:48:46;;;;;;;4.35;2.70;;;;;;;;;;5054795;28;20049;-77
2023/04/27 08:51:14;;;;;;;5.82;2.55;;;;;;;;;;5037053;28;20557;-76
2023/04/27 08:53:45;;;;;;;4.95;2.60;;;;;;;;;;5036521;28;20044;-77
2023/04/27 08:56:11;;;;;;;4.38;2.40;;;;;;;;;;5055097;28;20405;-77
2023/04/27 08:58:38;;;;;;;5.50;2.60;;;;;;;;;;5053165;28;20041;-76
2023/04/27 09:01:06;;;;;;;8.40;2.80;;;;;;;;;;5015314;28;20041;-76
2023/04/27 09:03:33;;;;;;;7.95;2.67;;;;;;;;;;5027599;28;20497;-77
2023/04/27 09:05:59;;;;;;;5.18;2.40;;;;;;;;;;5054123;28;20079;-75
2023/04/27 09:08:25;;;;;;;5.22;2.45;;;;;;;;;;5053986;28;20047;-75
2023/04/27 09:10:53;;;;;;;4.85;3.13;;;;;;;;;;5054227;28;20448;-74
2023/04/27 09:13:20;;;;;;;5.07;2.55;;;;;;;;;;5037090;28;20045;-75
2023/04/27 09:15:47;;;;;;;5.10;3.00;;;;;;;;;;5036992;28;20055;-76
2023/04/27 09:18:20;;;;;;;3.67;2.58;;;;;;;;;;5004087;28;20044;-72
2023/04/27 09:20:47;;;;;;;6.68;2.60;;;;;;;;;;5054464;28;20052;-75
2023/04/27 09:23:29;;;;;;;6.88;2.70;;;;;;;;;;5035400;28;20093;-74
2023/04/27 09:25:56;;;;;;;5.18;2.72;;;;;;;;;;5057674;28;20073;-75
2023/04/27 09:28:23;;;;;;;5.05;3.05;;;;;;;;;;5055733;28;20140;-75
2023/04/27 09:30:53;;;;;;;7.97;2.85;;;;;;;;;;5036506;28;20118;-76
2023/04/27 09:33:27;;;;;;;7.00;3.08;;;;;;;;;;5054371;28;20136;-76
2023/04/27 09:35:53;;;;;;;5.38;2.90;;;;;;;;;;5054417;28;20059;-76
2023/04/27 09:38:20;;;;;;;8.00;3.50;;;;;;;;;;5036491;28;20048;-76
2023/04/27 09:40:47;;;;;;;8.20;3.35;;;;;;;;;;5035826;28;20052;-77
2023/04/27 09:43:13;;;;;;;3.90;2.83;;;;;;;;;;5019873;28;20060;-76
2023/04/27 09:45:39;;;;;;;8.38;3.47;;;;;;;;;;5016675;28;20045;-78
2023/04/27 09:48:06;;;;;;;5.25;3.17;;;;;;;;;;5034209;28;20398;-78
2023/04/27 09:50:40;;;;;;;6.05;3.10;;;;;;;;;;5032548;28;20052;-78
2023/04/27 09:53:07;;;;;;;7.90;3.83;;;;;;;;;;5033539;28;20042;-78
2023/04/27 09:55:37;;;;;;;7.82;3.22;;;;;;;;;;5016095;28;20037;-78
2023/04/27 09:58:09;;;;;;;5.72;3.35;;;;;;;;;;5034125;28;20042;-78
2023/04/27 10:00:55;;;;;;;7.05;3.50;;;;;;;;;;5016404;28;20080;-78
2023/04/27 10:03:45;;;;;;;6.55;3.33;;;;;;;;;;5033930;28;20041;-78
2023/04/27 10:06:20;;;;;;;8.38;3.85;;;;;;;;;;5016512;28;20053;-78
2023/04/27 10:08:47;;;;;;;7.80;3.67;;;;;;;;;;5017545;28;20041;-78
2023/04/27 10:11:21;;;;;;;7.22;3.83;;;;;;;;;;5044065;28;20164;-78
2023/04/27 10:13:54;;;;;;;9.45;3.70;;;;;;;;;;5042719;28;20077;-77
2023/04/27 10:16:21;;;;;;;7.13;3.67;;;;;;;;;;4998573;28;20398;-77
2023/04/27 10:19:09;;;;;;;7.88;3.75;;;;;;;;;;5036687;28;20414;-73
2023/04/27 10:21:35;;;;;;;7.18;3.90;;;;;;;;;;5050381;28;20090;-72
2023/04/27 10:24:10;;;;;;;6.95;3.97;;;;;;;;;;5048676;28;20048;-70
2023/04/27 10:26:36;;;;;;;6.75;3.80;;;;;;;;;;5028277;28;20049;-71
2023/04/27 10:29:06;;;;;;;7.35;4.05;;;;;;;;;;5050427;28;20067;-72
2023/04/27 10:31:32;;;;;;;8.82;3.95;;;;;;;;;;5049861;28;20186;-73
2023/04/27 10:34:05;;;;;;;10.38;4.53;;;;;;;;;;5027664;28;20115;-71
2023/04/27 10:36:38;;;;;;;8.52;4.25;;;;;;;;;;5049836;28;20037;-71
2023/04/27 10:39:15;;;;;;;8.02;4.22;;;;;;;;;;5050268;28;20049;-72
2023/04/27 10:41:49;;;;;;;9.77;4.57;;;;;;;;;;5048619;28;20401;-72
2023/04/27 10:44:16;;;;;;;8.80;3.83;;;;;;;;;;5048490;28;20049;-72
2023/04/27 10:46:53;;;;;;;5.72;3.75;;;;;;;;;;5049271;28;20048;-71
2023/04/27 10:49:19;;;;;;;8.93;4.63;;;;;;;;;;5047755;28;20052;-71
2023/04/27 10:51:46;;;;;;;8.90;4.40;;;;;;;;;;5047742;28;20072;-72
2023/04/27 10:54:12;;;;;;;7.22;4.38;;;;;;;;;;5049254;28;20052;-72
2023/04/27 10:56:40;;;;;;;11.18;4.57;;;;;;;;;;5049570;28;20047;-72
2023/04/27 10:59:09;;;;;;;8.27;4.68;;;;;;;;;;5042417;28;20037;-73
2023/04/27 11:01:36;;;;;;;8.32;4.53;;;;;;;;;;5047603;28;20064;-72
2023/04/27 11:04:05;;;;;;;7.50;4.32;;;;;;;;;;5031177;28;20041;-72
2023/04/27 11:06:32;;;;;;;9.90;4.80;;;;;;;;;;5049413;28;20052;-73
2023/04/27 11:08:59;;;;;;;8.82;4.45;;;;;;;;;;5047417;28;20052;-72
2023/04/27 11:11:25;;;;;;;9.20;4.95;;;;;;;;;;5047858;28;20503;-72
2023/04/27 11:13:52;;;;;;;6.35;4.30;;;;;;;;;;5049013;28;20147;-73
2023/04/27 11:16:18;;;;;;;6.82;3.90;;;;;;;;;;5047132;28;20119;-73
2023/04/27 11:18:45;;;;;;;7.45;4.15;;;;;;;;;;5047832;28;20048;-72
2023/04/27 11:21:14;;;;;;;7.68;4.43;;;;;;;;;;5047580;28;20055;-72
2023/04/27 11:23:41;;;;;;;6.93;4.20;;;;;;;;;;5049122;28;20405;-72
2023/04/27 11:26:17;;;;;;;8.07;4.57;;;;;;;;;;5045727;28;20130;-72
2023/04/27 11:28:44;;;;;;;8.60;4.68;;;;;;;;;;5039504;28;20445;-71
2023/04/27 11:31:11;;;;;;;7.38;4.63;;;;;;;;;;5028209;28;20037;-73
2023/04/27 11:33:39;;;;;;;7.40;4.50;;;;;;;;;;5034138;28;20414;-72
2023/04/27 11:36:15;;;;;;;7.10;4.10;;;;;;;;;;5042078;28;20049;-74
2023/04/27 11:38:42;;;;;;;7.82;4.78;;;;;;;;;;5035214;28;20056;-72
2023/04/27 11:41:08;;;;;;;7.47;4.20;;;;;;;;;;5042331;28;20040;-73
2023/04/27 11:43:34;;;;;;;9.93;4.75;;;;;;;;;;5043531;28;20102;-72
2023/04/27 11:46:05;;;;;;;7.15;4.68;;;;;;;;;;5030978;28;20037;-73
2023/04/27 11:48:31;;;;;;;8.35;4.53;;;;;;;;;;5048021;28;20052;-72
2023/04/27 11:50:59;;;;;;;8.23;4.90;;;;;;;;;;5049128;28;20036;-73
2023/04/27 11:53:29;;;;;;;9.50;5.25;;;;;;;;;;5047046;28;20048;-72
2023/04/27 11:55:56;;;;;;;8.52;5.13;;;;;;;;;;5048959;28;20163;-74
2023/04/27 11:58:22;;;;;;;9.25;5.00;;;;;;;;;;5047345;28;20153;-72
2023/04/27 12:00:48;;;;;;;10.95;6.00;;;;;;;;;;5048453;28;20221;-71
2023/04/27 12:03:15;;;;;;;12.57;6.30;;;;;;;;;;5051428;28;20067;-72
2023/04/27 12:05:49;;;;;;;10.57;5.68;;;;;;;;;;5052917;28;20405;-71
2023/04/27 12:08:16;;;;;;;11.88;5.63;;;;;;;;;;5051699;28;20075;-71
2023/04/27 12:10:42;;;;;;;9.50;4.97;;;;;;;;;;5051016;28;20125;-70
2023/04/27 12:13:08;;;;;;;11.60;4.78;;;;;;;;;;5052559;28;20048;-71
2023/04/27 12:15:34;;;;;;;9.43;5.10;;;;;;;;;;5052133;28;20438;-70
2023/04/27 12:18:00;;;;;;;11.02;5.03;;;;;;;;;;5054913;28;20530;-71
2023/04/27 12:20:27;;;;;;;9.63;4.43;;;;;;;;;;5052024;28;20140;-71
2023/04/27 12:22:53;;;;;;;10.43;4.60;;;;;;;;;;5050950;28;20052;-70
2023/04/27 12:25:20;;;;;;;11.80;4.38;;;;;;;;;;5051866;28;20051;-71
2023/04/27 12:27:47;;;;;;;8.32;4.70;;;;;;;;;;5052589;28;20061;-70
2023/04/27 12:30:13;;;;;;;10.48;5.50;;;;;;;;;;5050755;28;20218;-72
2023/04/27 12:32:40;;;;;;;10.35;5.28;;;;;;;;;;5050848;28;20186;-71
2023/04/27 12:35:07;;;;;;;10.10;5.00;;;;;;;;;;5052659;28;20110;-72
2023/04/27 12:37:33;;;;;;;11.43;4.47;;;;;;;;;;5046158;28;20080;-71
2023/04/27 12:39:59;;;;;;;7.45;4.60;;;;;;;;;;5051882;28;20095;-71
2023/04/27 12:42:25;;;;;;;8.35;4.53;;;;;;;;;;5051977;28;20101;-71
2023/04/27 12:44:52;;;;;;;10.52;4.40;;;;;;;;;;5052139;28;20079;-71
2023/04/27 12:47:18;;;;;;;7.07;4.15;;;;;;;;;;5044199;28;20497;-71
2023/04/27 12:49:44;;;;;;;9.57;4.18;;;;;;;;;;5050856;28;20065;-72
2023/04/27 12:52:10;;;;;;;8.65;4.50;;;;;;;;;;5053369;28;20103;-73
2023/04/27 12:54:36;;;;;;;6.43;4.13;;;;;;;;;;5032326;28;20041;-73
2023/04/27 12:57:05;;;;;;;8.52;4.63;;;;;;;;;;5051829;28;20052;-74
2023/04/27 12:59:34;;;;;;;8.23;4.30;;;;;;;;;;5053490;28;20045;-74
2023/04/27 13:02:00;;;;;;;6.00;4.03;;;;;;;;;;5051152;28;20098;-73
2023/04/27 13:04:27;;;;;;;7.05;4.72;;;;;;;;;;5054921;28;20048;-75
2023/04/27 13:06:53;;;;;;;9.52;4.60;;;;;;;;;;5055060;28;20049;-75
2023/04/27 13:09:20;;;;;;;9.07;5.05;;;;;;;;;;5053899;28;20060;-74
2023/04/27 13:11:46;;;;;;;9.80;4.32;;;;;;;;;;5032873;28;20120;-75
2023/04/27 13:14:12;;;;;;;10.68;4.18;;;;;;;;;;5053535;28;20052;-75
2023/04/27 13:16:41;;;;;;;10.43;4.45;;;;;;;;;;5033057;28;20513;-75
2023/04/27 13:19:07;;;;;;;9.35;4.93;;;;;;;;;;5028442;28;20045;-75
2023/04/27 13:21:34;;;;;;;8.70;5.13;;;;;;;;;;5051981;28;20179;-75
2023/04/27 13:24:00;;;;;;;8.93;5.22;;;;;;;;;;5053696;28;20130;-74
2023/04/27 13:26:26;;;;;;;9.30;5.60;;;;;;;;;;5054385;28;20047;-74
2023/04/27 13:28:52;;;;;;;11.77;4.60;;;;;;;;;;5051407;28;20049;-74
2023/04/27 13:31:18;;;;;;;9.82;4.63;;;;;;;;;;5053954;28;20045;-74
2023/04/27 13:33:44;;;;;;;9.38;4.72;;;;;;;;;;5049826;28;20131;-74
2023/04/27 13:36:13;;;;;;;10.20;3.88;;;;;;;;;;5045965;28;20110;-74
2023/04/27 13:38:40;;;;;;;8.98;4.40;;;;;;;;;;5036347;28;20049;-74
2023/04/27 13:41:06;;;;;;;8.02;4.43;;;;;;;;;;5052476;28;20041;-74
2023/04/27 13:43:32;;;;;;;8.25;4.90;;;;;;;;;;5047797;28;20084;-75
2023/04/27 13:46:00;;;;;;;11.63;4.93;;;;;;;;;;5054157;28;20045;-74
2023/04/27 13:48:26;;;;;;;8.80;4.57;;;;;;;;;;5047517;28;20049;-75
2023/04/27 13:50:54;;;;;;;9.52;5.10;;;;;;;;;;5053831;28;20049;-75
2023/04/27 13:53:20;;;;;;;7.80;4.78;;;;;;;;;;5046548;28;20081;-75
2023/04/27 13:55:46;;;;;;;8.48;4.80;;;;;;;;;;5053982;28;20045;-75
2023/04/27 13:58:12;;;;;;;7.95;4.95;;;;;;;;;;5045209;28;20037;-75
2023/04/27 14:00:39;;;;;;;8.95;4.47;;;;;;;;;;5050643;28;20049;-75
2023/04/27 14:03:07;;;;;;;6.45;4.35;;;;;;;;;;5051664;28;20040;-75
2023/04/27 14:05:33;;;;;;;9.20;5.10;;;;;;;;;;5044987;28;20078;-74
2023/04/27 14:07:59;;;;;;;8.15;4.97;;;;;;;;;;5034848;28;20083;-75
2023/04/27 14:10:25;;;;;;;10.73;4.57;;;;;;;;;;5052697;28;20123;-74
2023/04/27 14:12:51;;;;;;;8.57;4.78;;;;;;;;;;5053709;28;20045;-74
2023/04/27 14:15:17;;;;;;;7.57;5.13;;;;;;;;;;5053269;28;20401;-74
2023/04/27 14:17:44;;;;;;;8.05;4.75;;;;;;;;;;5032548;28;20041;-74
2023/04/27 14:20:10;;;;;;;8.75;5.97;;;;;;;;;;5042609;28;20140;-76
2023/04/27 14:22:36;;;;;;;9.77;4.78;;;;;;;;;;5036539;28;20063;-76
2023/04/27 14:25:02;;;;;;;10.95;5.28;;;;;;;;;;5029945;28;20103;-75
2023/04/27 14:27:28;;;;;;;10.18;5.90;;;;;;;;;;5030165;28;20049;-76
2023/04/27 14:29:54;;;;;;;9.20;5.03;;;;;;;;;;5027174;28;20118;-75
2023/04/27 14:32:21;;;;;;;10.35;5.05;;;;;;;;;;5054362;28;20049;-76
2023/04/27 14:34:47;;;;;;;7.97;4.65;;;;;;;;;;5032074;28;20095;-76
2023/04/27 14:37:13;;;;;;;10.10;4.75;;;;;;;;;;5050344;28;20072;-76